Für Piloten

Informationen für Piloten zum Flugplatz Borken-Hoxfeld
Hier findest Du alle relevanten Informationen, die Du als Pilot benötigst, um Borken-Hoxfeld anzufliegen.

Flugplatz: Borken-Hoxfeld ICAO-Code: EDLY
Borken-Hoxfeld Info: 122,930 Mhz
GAFOR Gebiet: 32
Platzrunde: Motorflug; -> Südplatzrunde; Segelflug; -> Nordplatzrunde;
Landegebühr: z.Zt. 5,00 Euro
Platzhöhe: 48m üMSL
Pisten: 12/30 – 740 m x 30 m, GRAS
Betriebszeiten: PPR (in den Sommermonaten Mittagspause beachten)

 

Wetterforecast:

Available data for EDDL from the past 2 hours
DUESSELDORF
Metar
EDDL 231750Z 02006KT CAVOK 26/11 Q1022 NOSIG

17:50 UTC

Wind: 20° 6kt

Visibility:

Sky:

Temp: 26 deg C / 78.8 deg F

Dewpoint: 11 deg C / 51.8 deg F

Pressure: 1022 hPa

TAF
TAF EDDL 231100Z 2312/2418 03004KT CAVOK BECMG 2403/2406 10006KT

Alle obigen Informationen ersetzen nicht die vorgeschriebene, persönliche Flugvorbereitung.